Savage Insight — WDF9252 — position and weather

sailwx.info

Track history (hours):
 
Tides and Currents Weather Stations Pressure Air Temp Water Temp Dewpoint Dewpoint Depression Visibility Wind Speed Wind Dir Waves Ship Positions

Savage Insight

Owner: Savage Inland Marine, Gibson, LA. More information available from US FCC via Universal Licensing System and Coast Guard Vessel Documentation Center.

Last reported at 2018-Feb-20 23:33 UTC. Time now 2018-Feb-21 17:32 UTC.
Position N 29°45' W 095°04'.

Length 32 m; draft 10 m.

Type: Towing. MMSI: 367503240.

Date/timePositionNaut miles runAvg speedWind from/ knotsBaromVisibWave heightAir tempDewpointWater temp
2018-Feb-20 23:33N 29°45' W 095°04'0 1.3
2018-Feb-20 23:12N 29°45' W 095°04'0 0.4
2018-Feb-20 22:55N 29°45' W 095°04'0 0.4
2018-Feb-20 22:24N 29°45' W 095°04'2 4.5
2018-Feb-20 22:00N 29°44' W 095°02'2 4.9
2018-Feb-20 21:30N 29°42' W 094°60'3 5.9
2018-Feb-20 21:01N 29°39' W 094°58'4 7.0
2018-Feb-20 20:30N 29°36' W 094°57'4 7.2
2018-Feb-20 20:01N 29°33' W 094°55'12 4.9
2018-Feb-20 17:30N 29°24' W 094°45'2 5.1
2018-Feb-20 17:00N 29°26' W 094°42'3 0.6
2018-Feb-20 13:03N 29°28' W 094°40'0 0.2
2018-Feb-20 12:55N 29°28' W 094°40'0 0.0
2018-Feb-20 10:40N 29°28' W 094°40'0 0.0
2018-Feb-20 09:29N 29°28' W 094°40'0 0.0
2018-Feb-20 07:30N 29°28' W 094°40'0 0.0
2018-Feb-20 06:59N 29°28' W 094°40'0 0.2
2018-Feb-20 03:56N 29°28' W 094°40'12 2.2
2018-Feb-19 22:33N 29°34' W 094°28'0 0.0
2018-Feb-19 22:28N 29°34' W 094°28'1 1.1
2018-Feb-19 21:41N 29°34' W 094°27'0 0.0
2018-Feb-19 20:44N 29°34' W 094°27'0 0.0
2018-Feb-19 20:29N 29°34' W 094°27'1 1.9
2018-Feb-19 19:57N 29°34' W 094°26'2 3.6
2018-Feb-19 19:30N 29°35' W 094°25'0 0.0
2018-Feb-19 18:59N 29°35' W 094°25'0 0.4
2018-Feb-19 18:30N 29°36' W 094°25'2 3.9
2018-Feb-19 18:00N 29°36' W 094°23'0 0.4
2018-Feb-19 17:30N 29°36' W 094°22'0 0.0
2018-Feb-19 16:59N 29°36' W 094°22'0 0.0
2018-Feb-19 16:30N 29°36' W 094°22'0 0.0
2018-Feb-19 16:01N 29°36' W 094°22'0 0.0
2018-Feb-19 15:30N 29°36' W 094°22'0 0.6
2018-Feb-19 15:01N 29°36' W 094°22'2 4.1
2018-Feb-19 14:30N 29°37' W 094°20'0 0.2
2018-Feb-19 14:00N 29°37' W 094°20'2 4.4
2018-Feb-19 13:30N 29°38' W 094°18'2 4.8
2018-Feb-19 13:00N 29°39' W 094°15'3 5.2
2018-Feb-19 12:31N 29°41' W 094°13'2 4.6
2018-Feb-19 12:01N 29°41' W 094°10'2 3.7
2018-Feb-19 11:30N 29°42' W 094°08'2 4.4
2018-Feb-19 11:01N 29°44' W 094°06'1 1.9
2018-Feb-19 10:31N 29°44' W 094°05'0 0.1
2018-Feb-19 10:00N 29°44' W 094°06'0 0.0
2018-Feb-19 09:31N 29°44' W 094°06'0 0.0
2018-Feb-19 09:01N 29°44' W 094°06'0 0.0
2018-Feb-19 08:30N 29°44' W 094°06'0 0.0
2018-Feb-19 08:00N 29°44' W 094°06'0 0.0
2018-Feb-19 07:30N 29°44' W 094°06'0 0.0
2018-Feb-19 07:00N 29°44' W 094°06'0 0.0
2018-Feb-19 06:30N 29°44' W 094°06'0 0.0
2018-Feb-19 06:01N 29°44' W 094°06'0 0.0
2018-Feb-19 05:30N 29°44' W 094°06'0 0.0
2018-Feb-19 04:59N 29°44' W 094°06'0 0.0
2018-Feb-19 04:30N 29°44' W 094°06'0 0.0
2018-Feb-19 04:00N 29°44' W 094°06'0 0.0
2018-Feb-19 03:29N 29°44' W 094°06'0 0.0
2018-Feb-19 03:00N 29°44' W 094°06'0 0.0
2018-Feb-19 02:30N 29°44' W 094°06'0 0.0
2018-Feb-19 02:01N 29°44' W 094°06'0 0.0
2018-Feb-19 01:29N 29°44' W 094°06'0 0.0
2018-Feb-19 01:00N 29°44' W 094°06'0 0.0
2018-Feb-19 00:31N 29°44' W 094°06'0 0.0
2018-Feb-18 23:59N 29°44' W 094°06'0 0.2
2018-Feb-18 23:30N 29°44' W 094°05'2 4.2
2018-Feb-18 23:00N 29°46' W 094°04'2 4.6
2018-Feb-18 22:30N 29°47' W 094°02'2 4.4
2018-Feb-18 22:00N 29°49' W 093°60'2 4.7
2018-Feb-18 21:30N 29°50' W 093°57'3 5.5
2018-Feb-18 21:00N 29°52' W 093°56'4 7.2
2018-Feb-18 20:30N 29°55' W 093°53'4 7.3
2018-Feb-18 20:00N 29°58' W 093°51'1 2.6
2018-Feb-18 19:30N 29°59' W 093°50'3 6.0
2018-Feb-18 19:00N 29°60' W 093°47'3 5.3
2018-Feb-18 18:30N 30°01' W 093°44'2 4.8
2018-Feb-18 18:00N 30°03' W 093°43'2 4.2
2018-Feb-18 17:30N 30°04' W 093°40'2 4.7
2018-Feb-18 17:00N 30°04' W 093°37'2 4.6
2018-Feb-18 16:30N 30°04' W 093°35'1 3.0
2018-Feb-18 16:00N 30°04' W 093°33'0 0.8
2018-Feb-18 15:30N 30°04' W 093°33'0 0.0
2018-Feb-18 14:58N 30°04' W 093°33'0 0.0
2018-Feb-18 14:30N 30°04' W 093°33'0 0.0
2018-Feb-18 14:00N 30°04' W 093°33'0 0.0
2018-Feb-18 13:29N 30°04' W 093°33'0 0.0
2018-Feb-18 12:52N 30°04' W 093°33'0 0.0
2018-Feb-18 12:21N 30°04' W 093°33'0 0.3
2018-Feb-18 12:00N 30°04' W 093°33'1 2.1
2018-Feb-18 11:30N 30°04' W 093°31'2 3.9
2018-Feb-18 11:00N 30°04' W 093°29'2 4.5
2018-Feb-18 10:30N 30°04' W 093°27'2 4.7
2018-Feb-18 10:00N 30°04' W 093°24'2 3.5
2018-Feb-18 09:30N 30°04' W 093°22'2 3.1
2018-Feb-18 09:00N 30°05' W 093°20'1 1.4
2018-Feb-18 08:30N 30°05' W 093°20'1 1.7
2018-Feb-18 08:00N 30°06' W 093°19'0 1.0
2018-Feb-18 07:30N 30°06' W 093°19'0 0.2
2018-Feb-18 07:00N 30°06' W 093°19'1 1.9
2018-Feb-18 06:30N 30°06' W 093°18'1 2.6
2018-Feb-18 06:00N 30°05' W 093°17'1 2.5
2018-Feb-18 05:30N 30°04' W 093°16'0 0.4
2018-Feb-18 05:00N 30°04' W 093°16'0 0.0
2018-Feb-18 04:30N 30°04' W 093°16'0 0.0
2018-Feb-18 04:00N 30°04' W 093°16'0 0.0
2018-Feb-18 03:30N 30°04' W 093°16'0 0.0
2018-Feb-18 03:00N 30°04' W 093°16'0 0.0
2018-Feb-18 02:30N 30°04' W 093°16'0 0.0
2018-Feb-18 02:00N 30°04' W 093°16'0 0.1
2018-Feb-18 01:30N 30°03' W 093°16'1 2.6
2018-Feb-18 01:00N 30°02' W 093°15'2 3.7
2018-Feb-18 00:30N 30°01' W 093°14'2 4.2
2018-Feb-18 00:00N 29°59' W 093°13'2 4.7
2018-Feb-17 23:30N 29°57' W 093°11'2 4.5
2018-Feb-17 23:00N 29°56' W 093°09'1 2.4
2018-Feb-17 22:30N 29°56' W 093°07'40 1.7
2018-Feb-16 22:50N 29°51' W 092°22'1 3.2
2018-Feb-16 22:26N 29°51' W 092°20'1 3.2
2018-Feb-16 22:00N 29°50' W 092°19'1 2.5
2018-Feb-16 21:27N 29°49' W 092°17'1 2.9
2018-Feb-16 21:00N 29°49' W 092°16'2 3.5
2018-Feb-16 20:30N 29°48' W 092°14'2 3.5
2018-Feb-16 20:00N 29°47' W 092°12'1 2.6
2018-Feb-16 19:30N 29°47' W 092°11'1 2.9
2018-Feb-16 19:00N 29°47' W 092°09'2 3.9
2018-Feb-16 18:30N 29°47' W 092°07'2 4.3
2018-Feb-16 18:00N 29°48' W 092°05'2 4.2
2018-Feb-16 17:30N 29°49' W 092°03'2 4.0
2018-Feb-16 17:00N 29°50' W 092°01'1 2.5
2018-Feb-16 16:30N 29°50' W 091°59'  
2018-Feb-12 22:13N 32°01' W 091°05'6 7.6
2018-Feb-12 21:28N 32°06' W 091°06'3 5.1
2018-Feb-12 20:58N 32°07' W 091°04'3 7.1
2018-Feb-12 20:30N 32°09' W 091°00'5 9.1
2018-Feb-12 20:00N 32°14' W 090°59'4 8.4
2018-Feb-12 19:30N 32°17' W 090°56'4 7.3
2018-Feb-12 19:00N 32°20' W 090°54'4 8.1
2018-Feb-12 18:30N 32°21' W 090°59'3 6.8
2018-Feb-12 18:00N 32°24' W 090°59'4 8.1
2018-Feb-12 17:30N 32°26' W 091°04'4 8.0
2018-Feb-12 16:59N 32°29' W 091°07'4 8.6
2018-Feb-12 16:28N 32°34' W 091°06'  
Track history (hours):
 
Tides and Currents Weather Stations Pressure Air Temp Water Temp Dewpoint Dewpoint Depression Visibility Wind Speed Wind Dir Waves Ship Positions

Savage Insight

Owner: Savage Inland Marine, Gibson, LA. More information available from US FCC via Universal Licensing System and Coast Guard Vessel Documentation Center.

Last reported at 2018-Feb-20 23:33 UTC. Time now 2018-Feb-21 17:32 UTC.
Position N 29°45' W 095°04'.

Length 32 m; draft 10 m.

Type: Towing. MMSI: 367503240.

Date/timePositionNaut miles runAvg speedWind from/ knotsBaromVisibWave heightAir tempDewpointWater temp
2018-Feb-20 23:33N 29°45' W 095°04'0 1.3
2018-Feb-20 23:12N 29°45' W 095°04'0 0.4
2018-Feb-20 22:55N 29°45' W 095°04'0 0.4
2018-Feb-20 22:24N 29°45' W 095°04'2 4.5
2018-Feb-20 22:00N 29°44' W 095°02'2 4.9
2018-Feb-20 21:30N 29°42' W 094°60'3 5.9
2018-Feb-20 21:01N 29°39' W 094°58'4 7.0
2018-Feb-20 20:30N 29°36' W 094°57'4 7.2
2018-Feb-20 20:01N 29°33' W 094°55'12 4.9
2018-Feb-20 17:30N 29°24' W 094°45'2 5.1
2018-Feb-20 17:00N 29°26' W 094°42'3 0.6
2018-Feb-20 13:03N 29°28' W 094°40'0 0.2
2018-Feb-20 12:55N 29°28' W 094°40'0 0.0
2018-Feb-20 10:40N 29°28' W 094°40'0 0.0
2018-Feb-20 09:29N 29°28' W 094°40'0 0.0
2018-Feb-20 07:30N 29°28' W 094°40'0 0.0
2018-Feb-20 06:59N 29°28' W 094°40'0 0.2
2018-Feb-20 03:56N 29°28' W 094°40'12 2.2
2018-Feb-19 22:33N 29°34' W 094°28'0 0.0
2018-Feb-19 22:28N 29°34' W 094°28'1 1.1
2018-Feb-19 21:41N 29°34' W 094°27'0 0.0
2018-Feb-19 20:44N 29°34' W 094°27'0 0.0
2018-Feb-19 20:29N 29°34' W 094°27'1 1.9
2018-Feb-19 19:57N 29°34' W 094°26'2 3.6
2018-Feb-19 19:30N 29°35' W 094°25'0 0.0
2018-Feb-19 18:59N 29°35' W 094°25'0 0.4
2018-Feb-19 18:30N 29°36' W 094°25'2 3.9
2018-Feb-19 18:00N 29°36' W 094°23'0 0.4
2018-Feb-19 17:30N 29°36' W 094°22'0 0.0
2018-Feb-19 16:59N 29°36' W 094°22'0 0.0
2018-Feb-19 16:30N 29°36' W 094°22'0 0.0
2018-Feb-19 16:01N 29°36' W 094°22'0 0.0
2018-Feb-19 15:30N 29°36' W 094°22'0 0.6
2018-Feb-19 15:01N 29°36' W 094°22'2 4.1
2018-Feb-19 14:30N 29°37' W 094°20'0 0.2
2018-Feb-19 14:00N 29°37' W 094°20'2 4.4
2018-Feb-19 13:30N 29°38' W 094°18'2 4.8
2018-Feb-19 13:00N 29°39' W 094°15'3 5.2
2018-Feb-19 12:31N 29°41' W 094°13'2 4.6
2018-Feb-19 12:01N 29°41' W 094°10'2 3.7
2018-Feb-19 11:30N 29°42' W 094°08'2 4.4
2018-Feb-19 11:01N 29°44' W 094°06'1 1.9
2018-Feb-19 10:31N 29°44' W 094°05'0 0.1
2018-Feb-19 10:00N 29°44' W 094°06'0 0.0
2018-Feb-19 09:31N 29°44' W 094°06'0 0.0
2018-Feb-19 09:01N 29°44' W 094°06'0 0.0
2018-Feb-19 08:30N 29°44' W 094°06'0 0.0
2018-Feb-19 08:00N 29°44' W 094°06'0 0.0
2018-Feb-19 07:30N 29°44' W 094°06'0 0.0
2018-Feb-19 07:00N 29°44' W 094°06'0 0.0
2018-Feb-19 06:30N 29°44' W 094°06'0 0.0
2018-Feb-19 06:01N 29°44' W 094°06'0 0.0
2018-Feb-19 05:30N 29°44' W 094°06'0 0.0
2018-Feb-19 04:59N 29°44' W 094°06'0 0.0
2018-Feb-19 04:30N 29°44' W 094°06'0 0.0
2018-Feb-19 04:00N 29°44' W 094°06'0 0.0
2018-Feb-19 03:29N 29°44' W 094°06'0 0.0
2018-Feb-19 03:00N 29°44' W 094°06'0 0.0
2018-Feb-19 02:30N 29°44' W 094°06'0 0.0
2018-Feb-19 02:01N 29°44' W 094°06'0 0.0
2018-Feb-19 01:29N 29°44' W 094°06'0 0.0
2018-Feb-19 01:00N 29°44' W 094°06'0 0.0
2018-Feb-19 00:31N 29°44' W 094°06'0 0.0
2018-Feb-18 23:59N 29°44' W 094°06'0 0.2
2018-Feb-18 23:30N 29°44' W 094°05'2 4.2
2018-Feb-18 23:00N 29°46' W 094°04'2 4.6
2018-Feb-18 22:30N 29°47' W 094°02'2 4.4
2018-Feb-18 22:00N 29°49' W 093°60'2 4.7
2018-Feb-18 21:30N 29°50' W 093°57'3 5.5
2018-Feb-18 21:00N 29°52' W 093°56'4 7.2
2018-Feb-18 20:30N 29°55' W 093°53'4 7.3
2018-Feb-18 20:00N 29°58' W 093°51'1 2.6
2018-Feb-18 19:30N 29°59' W 093°50'3 6.0
2018-Feb-18 19:00N 29°60' W 093°47'3 5.3
2018-Feb-18 18:30N 30°01' W 093°44'2 4.8
2018-Feb-18 18:00N 30°03' W 093°43'2 4.2
2018-Feb-18 17:30N 30°04' W 093°40'2 4.7
2018-Feb-18 17:00N 30°04' W 093°37'2 4.6
2018-Feb-18 16:30N 30°04' W 093°35'1 3.0
2018-Feb-18 16:00N 30°04' W 093°33'0 0.8
2018-Feb-18 15:30N 30°04' W 093°33'0 0.0
2018-Feb-18 14:58N 30°04' W 093°33'0 0.0
2018-Feb-18 14:30N 30°04' W 093°33'0 0.0
2018-Feb-18 14:00N 30°04' W 093°33'0 0.0
2018-Feb-18 13:29N 30°04' W 093°33'0 0.0
2018-Feb-18 12:52N 30°04' W 093°33'0 0.0
2018-Feb-18 12:21N 30°04' W 093°33'0 0.3
2018-Feb-18 12:00N 30°04' W 093°33'1 2.1
2018-Feb-18 11:30N 30°04' W 093°31'2 3.9
2018-Feb-18 11:00N 30°04' W 093°29'2 4.5
2018-Feb-18 10:30N 30°04' W 093°27'2 4.7
2018-Feb-18 10:00N 30°04' W 093°24'2 3.5
2018-Feb-18 09:30N 30°04' W 093°22'2 3.1
2018-Feb-18 09:00N 30°05' W 093°20'1 1.4
2018-Feb-18 08:30N 30°05' W 093°20'1 1.7
2018-Feb-18 08:00N 30°06' W 093°19'0 1.0
2018-Feb-18 07:30N 30°06' W 093°19'0 0.2
2018-Feb-18 07:00N 30°06' W 093°19'1 1.9
2018-Feb-18 06:30N 30°06' W 093°18'1 2.6
2018-Feb-18 06:00N 30°05' W 093°17'1 2.5
2018-Feb-18 05:30N 30°04' W 093°16'0 0.4
2018-Feb-18 05:00N 30°04' W 093°16'0 0.0
2018-Feb-18 04:30N 30°04' W 093°16'0 0.0
2018-Feb-18 04:00N 30°04' W 093°16'0 0.0
2018-Feb-18 03:30N 30°04' W 093°16'0 0.0
2018-Feb-18 03:00N 30°04' W 093°16'0 0.0
2018-Feb-18 02:30N 30°04' W 093°16'0 0.0
2018-Feb-18 02:00N 30°04' W 093°16'0 0.1
2018-Feb-18 01:30N 30°03' W 093°16'1 2.6
2018-Feb-18 01:00N 30°02' W 093°15'2 3.7
2018-Feb-18 00:30N 30°01' W 093°14'2 4.2
2018-Feb-18 00:00N 29°59' W 093°13'2 4.7
2018-Feb-17 23:30N 29°57' W 093°11'2 4.5
2018-Feb-17 23:00N 29°56' W 093°09'1 2.4
2018-Feb-17 22:30N 29°56' W 093°07'40 1.7
2018-Feb-16 22:50N 29°51' W 092°22'1 3.2
2018-Feb-16 22:26N 29°51' W 092°20'1 3.2
2018-Feb-16 22:00N 29°50' W 092°19'1 2.5
2018-Feb-16 21:27N 29°49' W 092°17'1 2.9
2018-Feb-16 21:00N 29°49' W 092°16'2 3.5
2018-Feb-16 20:30N 29°48' W 092°14'2 3.5
2018-Feb-16 20:00N 29°47' W 092°12'1 2.6
2018-Feb-16 19:30N 29°47' W 092°11'1 2.9
2018-Feb-16 19:00N 29°47' W 092°09'2 3.9
2018-Feb-16 18:30N 29°47' W 092°07'2 4.3
2018-Feb-16 18:00N 29°48' W 092°05'2 4.2
2018-Feb-16 17:30N 29°49' W 092°03'2 4.0
2018-Feb-16 17:00N 29°50' W 092°01'1 2.5
2018-Feb-16 16:30N 29°50' W 091°59'  
2018-Feb-12 22:13N 32°01' W 091°05'6 7.6
2018-Feb-12 21:28N 32°06' W 091°06'3 5.1
2018-Feb-12 20:58N 32°07' W 091°04'3 7.1
2018-Feb-12 20:30N 32°09' W 091°00'5 9.1
2018-Feb-12 20:00N 32°14' W 090°59'4 8.4
2018-Feb-12 19:30N 32°17' W 090°56'4 7.3
2018-Feb-12 19:00N 32°20' W 090°54'4 8.1
2018-Feb-12 18:30N 32°21' W 090°59'3 6.8
2018-Feb-12 18:00N 32°24' W 090°59'4 8.1
2018-Feb-12 17:30N 32°26' W 091°04'4 8.0
2018-Feb-12 16:59N 32°29' W 091°07'4 8.6
2018-Feb-12 16:28N 32°34' W 091°06'  

Dump ship's entire track history